Time;durP1;ratioP1;P1;durP2;ratioP2;P2;SDS_P1;SDS_P2;PMS_P1;PMS_P2;Temp;Humidity;BMP_temperature;BMP_pressure;BME280_temperature;BME280_humidity;BME280_pressure;Samples;Min_cycle;Max_cycle;Signal;HPM_P1;HPM_P2
2023/01/31 00:00:23;;;;;;;19.65;1.75;;;3.80;99.90;;;;;;5078681;28;20451;-37
2023/01/31 00:02:48;;;;;;;13.63;0.98;;;3.80;99.90;;;;;;5086124;28;20764;-37
2023/01/31 00:05:15;;;;;;;11.23;1.10;;;3.80;99.90;;;;;;5077247;28;20096;-38
2023/01/31 00:07:40;;;;;;;18.80;1.58;;;3.70;99.90;;;;;;5079166;28;20119;-38
2023/01/31 00:10:06;;;;;;;8.13;1.13;;;3.70;99.90;;;;;;5072339;28;20056;-37
2023/01/31 00:12:32;;;;;;;11.10;1.50;;;3.70;99.90;;;;;;5085224;28;20035;-37
2023/01/31 00:14:58;;;;;;;10.10;1.10;;;3.70;99.90;;;;;;5078837;28;20495;-37
2023/01/31 00:17:24;;;;;;;10.43;1.10;;;3.70;99.90;;;;;;5088963;28;20096;-38
2023/01/31 00:19:50;;;;;;;15.68;1.42;;;3.70;99.90;;;;;;5082144;28;20456;-39
2023/01/31 00:22:15;;;;;;;9.23;1.40;;;3.60;99.90;;;;;;5086439;28;20036;-38
2023/01/31 00:24:41;;;;;;;12.63;1.73;;;3.60;99.90;;;;;;5076544;28;20123;-39
2023/01/31 00:27:07;;;;;;;14.30;0.80;;;3.50;99.90;;;;;;5082663;28;20029;-38
2023/01/31 00:29:33;;;;;;;6.93;1.20;;;3.50;99.90;;;;;;5084377;28;20040;-37
2023/01/31 00:31:58;;;;;;;11.98;1.13;;;3.50;99.90;;;;;;5076793;28;20036;-38
2023/01/31 00:34:24;;;;;;;8.30;0.85;;;3.50;99.90;;;;;;5086689;28;20044;-39
2023/01/31 00:36:50;;;;;;;12.35;0.90;;;3.40;99.90;;;;;;5085289;28;20068;-38
2023/01/31 00:39:15;;;;;;;11.77;1.30;;;3.40;99.90;;;;;;5082678;28;20044;-37
2023/01/31 00:41:41;;;;;;;13.75;1.13;;;3.40;99.90;;;;;;5082329;28;20208;-39
2023/01/31 00:44:07;;;;;;;9.45;0.80;;;3.40;99.90;;;;;;5084595;28;20032;-38
2023/01/31 00:46:32;;;;;;;9.40;1.75;;;3.40;99.90;;;;;;5085927;28;20101;-38
2023/01/31 00:48:58;;;;;;;6.70;1.67;;;3.40;99.90;;;;;;5080651;28;20035;-38
2023/01/31 00:51:25;;;;;;;9.93;0.80;;;3.40;99.90;;;;;;5087041;28;20512;-37
2023/01/31 00:53:51;;;;;;;12.43;2.05;;;3.40;99.90;;;;;;5081643;28;20048;-37
2023/01/31 00:56:21;;;;;;;15.30;1.20;;;3.30;99.90;;;;;;5080172;28;20093;-39
2023/01/31 00:58:47;;;;;;;7.03;0.60;;;3.30;99.90;;;;;;5079303;28;20105;-38
2023/01/31 01:01:25;;;;;;;6.07;0.73;;;3.20;99.90;;;;;;5081244;28;20032;-37
2023/01/31 01:03:51;;;;;;;7.20;1.10;;;3.20;99.90;;;;;;5080993;28;20036;-40
2023/01/31 01:06:18;;;;;;;8.25;0.82;;;3.10;99.90;;;;;;5084436;28;20130;-37
2023/01/31 01:08:44;;;;;;;10.52;1.38;;;3.10;99.90;;;;;;5057457;28;20314;-38
2023/01/31 01:11:11;;;;;;;9.43;1.17;;;3.10;99.90;;;;;;5085800;28;20089;-38
2023/01/31 01:13:38;;;;;;;16.63;1.73;;;3.20;99.90;;;;;;5080877;28;20035;-38
2023/01/31 01:16:16;;;;;;;7.60;1.77;;;3.10;99.90;;;;;;5084351;28;20040;-37
2023/01/31 01:18:45;;;;;;;8.70;1.60;;;3.10;99.90;;;;;;5081886;28;20035;-37
2023/01/31 01:21:20;;;;;;;8.30;1.17;;;3.10;99.90;;;;;;5087306;28;20041;-38
2023/01/31 01:23:46;;;;;;;8.80;0.93;;;3.10;99.90;;;;;;5081324;28;20132;-38
2023/01/31 01:26:18;;;;;;;6.00;0.93;;;3.10;99.90;;;;;;5084976;28;20047;-38
2023/01/31 01:28:45;;;;;;;13.25;1.48;;;3.00;99.90;;;;;;5081799;28;20496;-39
2023/01/31 01:31:13;;;;;;;7.18;1.10;;;3.00;99.90;;;;;;5089384;28;20658;-38
2023/01/31 01:33:38;;;;;;;13.93;0.98;;;3.00;99.90;;;;;;5085815;28;20040;-37
2023/01/31 01:36:07;;;;;;;11.20;0.90;;;3.00;99.90;;;;;;5080542;28;20032;-38
2023/01/31 01:38:34;;;;;;;7.00;0.55;;;3.00;99.90;;;;;;5083610;28;20055;-39
2023/01/31 01:41:00;;;;;;;10.43;1.13;;;2.90;99.90;;;;;;5078093;28;20037;-38
2023/01/31 01:43:48;;;;;;;8.73;1.00;;;2.90;99.90;;;;;;5047174;28;20514;-37
2023/01/31 01:46:35;;;;;;;10.07;1.20;;;2.90;99.90;;;;;;5081987;28;20055;-38
2023/01/31 01:49:24;;;;;;;9.77;1.20;;;2.90;99.90;;;;;;5082810;28;20082;-37
2023/01/31 01:51:54;;;;;;;10.77;1.23;;;2.80;99.90;;;;;;5058980;28;20079;-37
2023/01/31 01:54:23;;;;;;;11.85;1.20;;;2.80;99.90;;;;;;5079558;28;20047;-39
2023/01/31 01:56:55;;;;;;;7.20;0.80;;;2.70;99.90;;;;;;5086881;28;20085;-37
2023/01/31 01:59:43;;;;;;;9.20;2.13;;;2.60;99.90;;;;;;5083493;28;20044;-38
2023/01/31 02:02:09;;;;;;;5.82;1.02;;;2.50;99.90;;;;;;5086718;28;20046;-37
2023/01/31 02:04:37;;;;;;;9.63;0.98;;;2.50;99.90;;;;;;5081742;28;20040;-37
2023/01/31 02:07:04;;;;;;;8.43;0.70;;;2.40;99.90;;;;;;5084950;28;20051;-37
2023/01/31 02:09:41;;;;;;;10.65;2.25;;;2.50;99.90;;;;;;5083484;28;20166;-37
2023/01/31 02:12:08;;;;;;;10.75;1.02;;;2.50;99.90;;;;;;5086599;28;20082;-37
2023/01/31 02:14:35;;;;;;;13.57;1.10;;;2.50;99.90;;;;;;5084508;28;20063;-37
2023/01/31 02:17:01;;;;;;;7.75;1.10;;;2.60;99.90;;;;;;5079793;28;20574;-38
2023/01/31 02:19:29;;;;;;;13.63;1.20;;;2.60;99.90;;;;;;5082776;28;20130;-38
2023/01/31 02:22:05;;;;;;;8.00;0.93;;;2.70;99.90;;;;;;5078801;28;20072;-38
2023/01/31 02:24:40;;;;;;;16.48;1.33;;;2.70;99.90;;;;;;5079380;28;20038;-38
2023/01/31 02:27:11;;;;;;;13.13;3.22;;;2.80;99.90;;;;;;5081261;28;20385;-37
2023/01/31 02:30:20;;;;;;;6.13;0.68;;;2.90;99.90;;;;;;5080346;28;20047;-37
2023/01/31 02:33:11;;;;;;;11.13;1.90;;;3.00;99.90;;;;;;5083773;28;20169;-42
2023/01/31 02:35:54;;;;;;;12.65;1.73;;;3.20;99.90;;;;;;5066023;28;20048;-38
2023/01/31 02:38:28;;;;;;;;;;;3.30;99.90;;;;;;5080635;28;20044;-38
2023/01/31 02:41:39;;;;;;;9.20;0.88;;;3.30;99.90;;;;;;5083207;28;20481;-37
2023/01/31 02:47:04;;;;;;;11.25;1.25;;;3.40;99.90;;;;;;5081353;28;20552;-38
2023/01/31 02:49:38;;;;;;;9.98;1.92;;;3.40;99.90;;;;;;5061495;28;20020;-38
2023/01/31 02:52:17;;;;;;;8.20;1.30;;;3.40;99.90;;;;;;5078190;28;20179;-37
2023/01/31 02:58:01;;;;;;;8.05;1.80;;;3.50;99.90;;;;;;5077024;28;20050;-37
2023/01/31 03:00:31;;;;;;;9.82;1.30;;;3.50;99.90;;;;;;5076226;28;20086;-37
2023/01/31 03:02:56;;;;;;;7.63;1.15;;;3.50;99.90;;;;;;5082898;28;20040;-37
2023/01/31 03:05:22;;;;;;;11.13;1.10;;;3.50;99.90;;;;;;5081264;28;20548;-37
2023/01/31 03:07:54;;;;;;;9.20;1.40;;;3.50;99.90;;;;;;5079526;28;20044;-38
2023/01/31 03:10:32;;;;;;;12.65;1.80;;;3.40;99.90;;;;;;5079083;28;20032;-37
2023/01/31 03:13:22;;;;;;;10.98;1.48;;;3.40;99.90;;;;;;5084218;28;20048;-38
2023/01/31 03:19:12;;;;;;;9.50;1.38;;;3.40;99.90;;;;;;5077866;28;20044;-37
2023/01/31 03:21:56;;;;;;;12.43;1.42;;;3.40;99.90;;;;;;5080112;28;20035;-37
2023/01/31 03:24:25;;;;;;;9.40;1.17;;;3.40;99.90;;;;;;5070451;28;20090;-38
2023/01/31 03:26:54;;;;;;;7.55;1.00;;;3.40;99.90;;;;;;5077837;28;20036;-44
2023/01/31 03:29:21;;;;;;;9.82;1.17;;;3.40;99.90;;;;;;5076687;28;20042;-37
2023/01/31 03:31:57;;;;;;;9.77;1.00;;;3.40;99.90;;;;;;5084939;28;20039;-37
2023/01/31 03:34:24;;;;;;;12.63;1.05;;;3.50;99.90;;;;;;5080646;28;20143;-37
2023/01/31 03:37:21;;;;;;;10.70;1.30;;;3.50;99.90;;;;;;5077974;28;20118;-37
2023/01/31 03:40:00;;;;;;;11.40;1.20;;;3.60;99.90;;;;;;5062675;28;20044;-37
2023/01/31 03:42:58;;;;;;;10.60;1.58;;;3.60;99.90;;;;;;5072881;28;20698;-37
2023/01/31 03:45:31;;;;;;;12.38;1.60;;;3.70;99.90;;;;;;5076552;28;20032;-39
2023/01/31 03:48:01;;;;;;;6.82;1.33;;;3.70;99.90;;;;;;5075710;28;20062;-39
2023/01/31 03:50:35;;;;;;;10.88;1.42;;;3.80;99.90;;;;;;5076810;28;20135;-38
2023/01/31 03:53:33;;;;;;;11.27;1.20;;;3.90;99.90;;;;;;5081096;28;20052;-38
2023/01/31 03:56:20;;;;;;;7.72;1.20;;;4.00;99.90;;;;;;5075703;28;20032;-38
2023/01/31 03:58:50;;;;;;;14.27;1.63;;;4.00;99.90;;;;;;5083787;28;20045;-38
2023/01/31 04:01:18;;;;;;;11.55;2.08;;;4.10;99.90;;;;;;5077634;28;20040;-38
2023/01/31 04:04:01;;;;;;;18.20;2.42;;;4.10;99.90;;;;;;5077537;28;21508;-39
2023/01/31 04:06:27;;;;;;;11.13;1.83;;;4.20;99.90;;;;;;5082718;28;20041;-38
2023/01/31 04:08:53;;;;;;;13.00;1.40;;;4.20;99.90;;;;;;5080697;28;20109;-38
2023/01/31 04:11:23;;;;;;;16.30;2.85;;;4.20;99.90;;;;;;5078801;28;20101;-38
2023/01/31 04:13:49;;;;;;;16.67;2.03;;;4.30;99.90;;;;;;5075092;28;20520;-38
2023/01/31 04:16:15;;;;;;;15.45;2.22;;;4.30;99.90;;;;;;5078461;28;20040;-38
2023/01/31 04:18:41;;;;;;;14.45;1.55;;;4.30;99.90;;;;;;5075701;28;20036;-38
2023/01/31 04:21:06;;;;;;;12.40;1.95;;;4.30;99.90;;;;;;5082752;28;20032;-38
2023/01/31 04:23:32;;;;;;;13.15;2.80;;;4.30;99.90;;;;;;5074403;28;20081;-38
2023/01/31 04:25:58;;;;;;;13.02;2.05;;;4.40;99.90;;;;;;5072453;28;20032;-38
2023/01/31 04:28:23;;;;;;;18.30;1.90;;;4.40;99.90;;;;;;5072913;28;20074;-38
2023/01/31 04:30:56;;;;;;;12.13;1.70;;;4.40;99.90;;;;;;5079305;28;20029;-38
2023/01/31 04:33:22;;;;;;;14.60;1.95;;;4.40;99.90;;;;;;5083265;28;20126;-38
2023/01/31 04:35:50;;;;;;;17.00;1.95;;;4.40;99.90;;;;;;5083691;28;20147;-38
2023/01/31 04:38:16;;;;;;;9.35;1.58;;;4.40;99.90;;;;;;5080593;28;20032;-38
2023/01/31 04:40:41;;;;;;;18.20;2.92;;;4.40;99.90;;;;;;5084052;28;20028;-38
2023/01/31 04:43:07;;;;;;;15.60;2.13;;;4.40;99.90;;;;;;5082118;28;20436;-37
2023/01/31 04:45:33;;;;;;;10.48;2.08;;;4.40;99.90;;;;;;5083520;28;20051;-38
2023/01/31 04:47:59;;;;;;;14.57;2.13;;;4.40;99.90;;;;;;5085202;28;20044;-38
2023/01/31 04:50:25;;;;;;;10.48;2.38;;;4.40;99.90;;;;;;5076495;28;20166;-38
2023/01/31 04:52:51;;;;;;;11.88;2.33;;;4.50;99.90;;;;;;5083024;28;21125;-39
2023/01/31 04:55:18;;;;;;;16.10;2.22;;;4.40;99.90;;;;;;5079835;28;20060;-38
2023/01/31 04:57:43;;;;;;;12.27;2.60;;;4.40;99.90;;;;;;5082168;28;20431;-38
2023/01/31 05:00:10;;;;;;;9.68;2.35;;;4.40;99.90;;;;;;5084438;28;20470;-38
2023/01/31 05:02:36;;;;;;;20.95;2.97;;;4.40;99.90;;;;;;5077227;28;20032;-37
2023/01/31 05:05:02;;;;;;;29.70;3.97;;;4.40;99.90;;;;;;5066296;28;20404;-38
2023/01/31 05:07:28;;;;;;;14.32;3.33;;;4.40;99.90;;;;;;5075532;28;20483;-40
2023/01/31 05:09:54;;;;;;;16.50;2.35;;;4.40;99.90;;;;;;5079843;28;20044;-39
2023/01/31 05:12:19;;;;;;;14.35;2.58;;;4.40;99.90;;;;;;5083352;28;20059;-39
2023/01/31 05:14:45;;;;;;;10.75;2.45;;;4.40;99.90;;;;;;5089813;28;20136;-38
2023/01/31 05:17:11;;;;;;;21.67;2.97;;;4.40;99.90;;;;;;5084212;28;20039;-39
2023/01/31 05:19:36;;;;;;;16.15;2.75;;;4.30;99.90;;;;;;5081137;28;20072;-38
2023/01/31 05:22:02;;;;;;;11.48;3.42;;;4.30;99.90;;;;;;5080865;28;20036;-38
2023/01/31 05:24:30;;;;;;;15.15;3.72;;;4.30;99.90;;;;;;5082313;28;20460;-38
2023/01/31 05:26:58;;;;;;;24.13;3.35;;;4.30;99.90;;;;;;5074320;28;20040;-38
2023/01/31 05:29:25;;;;;;;21.05;3.45;;;4.30;99.90;;;;;;5089034;28;20532;-38
2023/01/31 05:31:52;;;;;;;20.20;3.17;;;4.30;99.90;;;;;;5088063;28;20043;-38
2023/01/31 05:34:18;;;;;;;13.60;3.03;;;4.30;99.90;;;;;;5088987;28;20040;-37
2023/01/31 05:36:44;;;;;;;18.02;2.90;;;4.40;99.90;;;;;;5079136;28;20039;-41
2023/01/31 05:39:09;;;;;;;16.45;4.00;;;4.40;99.90;;;;;;5087515;28;20040;-38
2023/01/31 05:41:35;;;;;;;14.55;3.35;;;4.40;99.90;;;;;;5079840;28;20036;-38
2023/01/31 05:44:01;;;;;;;19.00;3.65;;;4.50;99.90;;;;;;5077771;28;20141;-39
2023/01/31 05:46:26;;;;;;;18.77;3.60;;;4.60;99.90;;;;;;5088365;28;20032;-37
2023/01/31 05:48:52;;;;;;;23.83;4.32;;;4.60;99.90;;;;;;5084314;28;20417;-37
2023/01/31 05:51:18;;;;;;;19.35;3.63;;;4.60;99.90;;;;;;5079793;28;20044;-39
2023/01/31 05:53:43;;;;;;;19.20;3.22;;;4.70;99.90;;;;;;5082491;28;20066;-40
2023/01/31 05:56:09;;;;;;;14.43;3.33;;;4.70;99.90;;;;;;5084859;28;20052;-37
2023/01/31 05:58:35;;;;;;;17.55;3.55;;;4.70;99.90;;;;;;5080138;28;20045;-37
2023/01/31 06:01:00;;;;;;;22.73;4.07;;;4.70;99.90;;;;;;5085945;28;20035;-38
2023/01/31 06:03:26;;;;;;;23.77;4.13;;;4.80;99.90;;;;;;5081636;28;20067;-38
2023/01/31 06:05:52;;;;;;;16.80;3.85;;;4.80;99.90;;;;;;5060941;28;20036;-37
2023/01/31 06:08:18;;;;;;;23.63;3.88;;;4.80;99.90;;;;;;5082276;28;20481;-38
2023/01/31 06:10:44;;;;;;;21.00;4.93;;;4.80;99.90;;;;;;5085611;28;20039;-38
2023/01/31 06:13:09;;;;;;;18.63;4.07;;;4.80;99.90;;;;;;5087817;28;20060;-38
2023/01/31 06:15:36;;;;;;;17.15;3.33;;;4.90;99.90;;;;;;5078253;28;20028;-37
2023/01/31 06:18:02;;;;;;;18.00;4.07;;;4.90;99.90;;;;;;5075428;28;20081;-38
2023/01/31 06:20:28;;;;;;;19.20;4.97;;;4.90;99.90;;;;;;5086688;28;20044;-38
2023/01/31 06:22:54;;;;;;;17.08;3.78;;;4.90;99.90;;;;;;5084620;28;20520;-37
2023/01/31 06:25:20;;;;;;;19.38;3.90;;;4.90;99.90;;;;;;5076952;28;20039;-38
2023/01/31 06:27:45;;;;;;;15.73;3.70;;;4.90;99.90;;;;;;5083083;28;20040;-38
2023/01/31 06:30:11;;;;;;;17.08;3.88;;;5.00;99.90;;;;;;5080222;28;20119;-38
2023/01/31 06:32:37;;;;;;;20.30;3.70;;;5.00;99.90;;;;;;5088544;28;20099;-37
2023/01/31 06:35:03;;;;;;;16.63;3.80;;;5.00;99.90;;;;;;5083451;28;20082;-36
2023/01/31 06:37:29;;;;;;;14.98;3.30;;;5.00;99.90;;;;;;5086292;28;20044;-36
2023/01/31 06:39:55;;;;;;;16.85;3.15;;;5.00;99.90;;;;;;5082976;28;20398;-37
2023/01/31 06:42:20;;;;;;;21.38;4.22;;;5.00;99.90;;;;;;5077541;28;20063;-37
2023/01/31 06:44:46;;;;;;;15.15;4.22;;;5.10;99.90;;;;;;5062086;28;20040;-41
2023/01/31 06:47:13;;;;;;;13.70;2.63;;;5.10;99.90;;;;;;5071271;28;20583;-42
2023/01/31 06:49:39;;;;;;;25.02;3.67;;;5.20;99.90;;;;;;5076138;28;20504;-43
2023/01/31 06:52:05;;;;;;;13.88;2.85;;;5.20;99.90;;;;;;5077954;28;20130;-38
2023/01/31 06:54:30;;;;;;;11.13;2.63;;;5.30;99.90;;;;;;5070624;28;20198;-39
2023/01/31 06:56:56;;;;;;;13.77;3.03;;;5.40;99.90;;;;;;5074433;28;20427;-42
2023/01/31 06:59:21;;;;;;;15.25;3.00;;;5.40;99.90;;;;;;5076064;28;20405;-38
2023/01/31 07:01:47;;;;;;;14.05;3.10;;;5.40;99.90;;;;;;5066244;28;20119;-41
2023/01/31 07:04:13;;;;;;;23.65;3.58;;;5.40;99.90;;;;;;5067093;28;20063;-45
2023/01/31 07:06:39;;;;;;;16.45;3.05;;;5.40;99.90;;;;;;5057534;28;20036;-41
2023/01/31 07:09:06;;;;;;;17.05;2.85;;;5.50;99.90;;;;;;5075677;28;20312;-39
2023/01/31 07:11:32;;;;;;;13.93;3.05;;;5.50;99.90;;;;;;5074334;28;20523;-39
2023/01/31 07:13:57;;;;;;;14.18;3.05;;;5.50;99.90;;;;;;5072597;28;20040;-41
2023/01/31 07:16:24;;;;;;;12.93;2.35;;;5.60;99.90;;;;;;5074737;28;20447;-42
2023/01/31 07:18:54;;;;;;;16.00;2.60;;;5.60;99.90;;;;;;5087218;28;20043;-39
2023/01/31 07:21:20;;;;;;;11.18;2.50;;;5.60;99.90;;;;;;5083505;28;20040;-38
2023/01/31 07:23:46;;;;;;;12.85;2.22;;;5.60;99.90;;;;;;5084408;28;20051;-38
2023/01/31 07:26:12;;;;;;;16.05;3.83;;;5.60;99.90;;;;;;5083732;28;20037;-43
2023/01/31 07:28:38;;;;;;;23.85;7.13;;;5.60;99.90;;;;;;5086168;28;20032;-41
2023/01/31 07:31:05;;;;;;;29.67;6.65;;;5.60;99.90;;;;;;5087290;28;20059;-43
2023/01/31 07:33:35;;;;;;;17.23;4.05;;;5.60;99.90;;;;;;5080564;28;20516;-42
2023/01/31 07:36:03;;;;;;;17.98;3.38;;;5.60;99.90;;;;;;5083810;28;20032;-44
2023/01/31 07:38:29;;;;;;;14.15;2.78;;;5.60;99.90;;;;;;5079149;28;20036;-41
2023/01/31 07:41:02;;;;;;;12.45;2.90;;;5.60;99.90;;;;;;5080601;28;20302;-48
2023/01/31 07:43:28;;;;;;;19.83;2.78;;;5.50;99.90;;;;;;5083967;28;20177;-46
2023/01/31 07:45:54;;;;;;;15.02;2.45;;;5.50;99.90;;;;;;5085022;28;20043;-40
2023/01/31 07:48:23;;;;;;;14.65;2.20;;;5.50;99.90;;;;;;5083904;28;20033;-46
2023/01/31 07:50:57;;;;;;;13.68;2.40;;;5.50;99.90;;;;;;5086693;28;20036;-42
2023/01/31 07:53:23;;;;;;;13.13;2.10;;;5.50;99.90;;;;;;5087616;28;20586;-42
2023/01/31 07:55:48;;;;;;;15.13;2.28;;;5.60;99.90;;;;;;5080534;28;20159;-41
2023/01/31 07:58:15;;;;;;;15.85;2.80;;;5.60;99.90;;;;;;5082065;28;20040;-40
2023/01/31 08:03:31;;;;;;;17.02;3.75;;;5.70;99.90;;;;;;5085496;28;20055;-39
2023/01/31 08:05:59;;;;;;;10.85;2.80;;;5.70;99.90;;;;;;5080084;28;20075;-42
2023/01/31 08:08:25;;;;;;;14.07;3.60;;;5.70;99.90;;;;;;5082775;28;20069;-45
2023/01/31 08:10:50;;;;;;;13.02;2.38;;;5.70;99.90;;;;;;5084982;28;20389;-41
2023/01/31 08:13:16;;;;;;;14.60;3.03;;;5.70;99.90;;;;;;5066830;28;20036;-43
2023/01/31 08:15:42;;;;;;;17.40;3.63;;;5.80;99.90;;;;;;5085866;28;20044;-42
2023/01/31 08:18:07;;;;;;;13.57;3.08;;;5.80;99.90;;;;;;5082013;28;20043;-42
2023/01/31 08:20:36;;;;;;;13.93;2.53;;;5.80;99.90;;;;;;5084764;28;20043;-42
2023/01/31 08:23:02;;;;;;;17.17;2.45;;;5.90;99.90;;;;;;5079177;28;20546;-43
2023/01/31 08:25:29;;;;;;;12.75;2.30;;;5.90;99.90;;;;;;5074064;28;20036;-41
2023/01/31 08:27:57;;;;;;;11.35;2.38;;;5.90;99.90;;;;;;5084268;28;20097;-41
2023/01/31 08:30:22;;;;;;;13.43;2.67;;;5.90;99.90;;;;;;5080464;28;20051;-48
2023/01/31 08:32:48;;;;;;;7.22;1.73;;;5.90;99.90;;;;;;5078480;28;20040;-42
2023/01/31 08:35:14;;;;;;;15.20;2.33;;;5.90;99.90;;;;;;5077651;28;20044;-42
2023/01/31 08:37:39;;;;;;;10.45;1.98;;;5.90;99.90;;;;;;5086000;28;20068;-42
2023/01/31 08:40:06;;;;;;;11.52;2.33;;;5.90;99.90;;;;;;5080749;28;20052;-41
2023/01/31 08:42:32;;;;;;;10.43;2.58;;;5.90;99.90;;;;;;5083429;28;20489;-49
2023/01/31 08:44:57;;;;;;;14.82;1.75;;;5.90;99.90;;;;;;5089895;28;20071;-41
2023/01/31 08:47:23;;;;;;;12.02;1.80;;;5.90;99.90;;;;;;5088720;28;20405;-42
2023/01/31 08:49:49;;;;;;;14.38;2.17;;;5.90;99.90;;;;;;5086954;28;20075;-40
2023/01/31 08:52:14;;;;;;;15.38;2.08;;;5.90;99.90;;;;;;5087489;28;20040;-41
2023/01/31 08:54:40;;;;;;;11.68;1.77;;;6.00;99.90;;;;;;5089561;28;20074;-42
2023/01/31 08:57:06;;;;;;;10.85;1.80;;;6.00;99.90;;;;;;5091113;28;20048;-43
2023/01/31 08:59:32;;;;;;;13.32;2.08;;;6.00;99.90;;;;;;5086603;28;20068;-42
2023/01/31 09:01:57;;;;;;;16.38;2.42;;;6.00;99.90;;;;;;5086550;28;20080;-46
2023/01/31 09:04:23;;;;;;;16.73;3.75;;;6.00;99.90;;;;;;5082338;28;20342;-41
2023/01/31 09:06:49;;;;;;;13.48;3.20;;;6.10;99.90;;;;;;5089328;28;20064;-43
2023/01/31 09:09:14;;;;;;;14.32;3.13;;;6.10;99.90;;;;;;5082631;28;20036;-42
2023/01/31 09:11:40;;;;;;;14.38;3.90;;;6.10;99.90;;;;;;5088086;28;20382;-41
2023/01/31 09:14:06;;;;;;;11.93;2.53;;;6.10;99.90;;;;;;5086227;28;20473;-41
2023/01/31 09:16:31;;;;;;;10.90;1.80;;;6.10;99.90;;;;;;5084211;28;20044;-43
2023/01/31 09:18:57;;;;;;;10.00;1.63;;;6.20;99.90;;;;;;5078797;28;20135;-40
2023/01/31 09:21:24;;;;;;;11.38;1.40;;;6.20;99.90;;;;;;5083634;28;20114;-39
2023/01/31 09:23:55;;;;;;;12.75;1.60;;;6.30;99.90;;;;;;5084397;28;20032;-41
2023/01/31 09:26:21;;;;;;;7.72;1.10;;;6.30;99.90;;;;;;5089255;28;20067;-43
2023/01/31 09:28:48;;;;;;;9.20;1.58;;;6.30;99.90;;;;;;5085949;28;20083;-42
2023/01/31 09:31:16;;;;;;;11.13;1.58;;;6.40;99.90;;;;;;5066678;28;20047;-41
2023/01/31 09:33:42;;;;;;;15.02;1.88;;;6.40;99.90;;;;;;5087790;28;20036;-41
2023/01/31 09:36:16;;;;;;;18.50;1.75;;;6.50;99.90;;;;;;5079871;28;20115;-40
2023/01/31 09:38:42;;;;;;;16.17;2.00;;;6.60;99.90;;;;;;5086851;28;20044;-39
2023/01/31 09:41:34;;;;;;;6.03;1.10;;;6.60;99.90;;;;;;5090489;28;20071;-40
2023/01/31 09:44:10;;;;;;;15.18;1.77;;;6.70;99.90;;;;;;5085985;28;20494;-44
2023/01/31 09:46:43;;;;;;;8.60;1.63;;;6.70;99.90;;;;;;5083719;28;20036;-43
2023/01/31 09:49:24;;;;;;;11.20;1.58;;;6.80;99.90;;;;;;5058828;28;20048;-40
2023/01/31 09:52:00;;;;;;;9.05;1.77;;;6.80;99.90;;;;;;5084249;28;20196;-45
2023/01/31 09:54:38;;;;;;;11.15;1.90;;;6.80;99.90;;;;;;5087183;28;20059;-44
2023/01/31 09:57:26;;;;;;;9.80;1.30;;;6.90;99.90;;;;;;5085828;28;20036;-44
2023/01/31 10:00:24;;;;;;;9.77;1.83;;;6.90;99.90;;;;;;5085373;28;20046;-42
2023/01/31 10:03:05;;;;;;;9.65;1.27;;;6.90;99.90;;;;;;5064366;28;20044;-48
2023/01/31 10:05:56;;;;;;;12.52;1.30;;;7.00;99.90;;;;;;5084255;28;20516;-48
2023/01/31 10:09:16;;;;;;;13.07;1.55;;;7.00;99.90;;;;;;5085345;28;20043;-44
2023/01/31 10:12:09;;;;;;;5.78;1.20;;;7.00;99.90;;;;;;5000712;28;20038;-45
2023/01/31 10:14:34;;;;;;;11.57;1.77;;;7.00;99.90;;;;;;5075229;28;20413;-40
2023/01/31 10:17:15;;;;;;;8.45;2.03;;;7.00;99.90;;;;;;5087386;28;20040;-47
2023/01/31 10:20:14;;;;;;;10.05;1.23;;;7.00;99.90;;;;;;5085080;28;20044;-43
2023/01/31 10:22:45;;;;;;;7.05;1.40;;;7.00;99.90;;;;;;5081067;28;20066;-46
2023/01/31 10:25:33;;;;;;;11.07;1.58;;;7.10;99.90;;;;;;5081415;28;20043;-51
2023/01/31 10:28:17;;;;;;;13.75;1.67;;;7.10;99.90;;;;;;5081024;28;20106;-47
2023/01/31 10:30:45;;;;;;;12.75;1.60;;;7.10;99.90;;;;;;5084263;28;20051;-42
2023/01/31 10:33:46;;;;;;;14.82;1.77;;;7.20;99.90;;;;;;5088606;28;20039;-47
2023/01/31 10:36:27;;;;;;;8.82;1.25;;;7.20;99.90;;;;;;5076447;28;20348;-40
2023/01/31 10:39:16;;;;;;;13.15;2.05;;;7.20;99.90;;;;;;5084002;28;20101;-42
2023/01/31 10:42:02;;;;;;;15.55;1.52;;;7.20;99.90;;;;;;5082470;28;20078;-44
2023/01/31 10:44:51;;;;;;;6.00;1.58;;;7.10;99.90;;;;;;5088615;28;20145;-45
2023/01/31 10:47:19;;;;;;;10.60;1.50;;;7.20;99.90;;;;;;5083035;28;20040;-43
2023/01/31 10:49:49;;;;;;;9.63;1.60;;;7.20;99.90;;;;;;5087943;28;20036;-40
2023/01/31 10:52:42;;;;;;;15.63;2.17;;;7.10;99.90;;;;;;5085763;28;20105;-45
2023/01/31 10:55:32;;;;;;;14.65;2.20;;;7.10;99.90;;;;;;5086048;28;20044;-41
2023/01/31 10:57:58;;;;;;;13.38;1.90;;;7.10;99.90;;;;;;5067672;28;20048;-41
2023/01/31 11:00:29;;;;;;;8.80;1.48;;;7.10;99.90;;;;;;5086529;28;20051;-46
2023/01/31 11:02:56;;;;;;;12.38;2.40;;;7.10;99.90;;;;;;5086834;28;20492;-40
2023/01/31 11:05:25;;;;;;;20.08;2.28;;;7.10;99.90;;;;;;5079644;28;20169;-42
2023/01/31 11:07:50;;;;;;;10.48;1.80;;;7.20;99.90;;;;;;5082437;28;20033;-52
2023/01/31 11:10:23;;;;;;;13.05;2.47;;;7.20;99.90;;;;;;5083682;28;20042;-45
2023/01/31 11:13:00;;;;;;;15.52;2.20;;;7.20;99.90;;;;;;5089080;28;20044;-45
2023/01/31 11:15:28;;;;;;;10.45;1.88;;;7.20;99.90;;;;;;5059435;28;20055;-45
2023/01/31 11:17:59;;;;;;;15.48;2.92;;;7.30;99.90;;;;;;5087811;28;20386;-45
2023/01/31 11:20:32;;;;;;;19.85;2.03;;;7.30;99.90;;;;;;5058131;28;20051;-48
2023/01/31 11:23:00;;;;;;;13.35;1.92;;;7.30;99.90;;;;;;5068451;28;20044;-44
2023/01/31 11:25:28;;;;;;;13.40;1.58;;;7.20;99.90;;;;;;5084268;28;20164;-43
2023/01/31 11:27:59;;;;;;;10.90;1.92;;;7.20;99.90;;;;;;5083777;28;20032;-44
2023/01/31 11:30:28;;;;;;;12.93;1.75;;;7.20;99.90;;;;;;5086706;28;20044;-50
2023/01/31 11:32:54;;;;;;;9.10;2.38;;;7.20;99.90;;;;;;5085196;28;20040;-42
2023/01/31 11:35:20;;;;;;;18.38;2.28;;;7.20;99.90;;;;;;5065377;28;20517;-47
2023/01/31 11:38:00;;;;;;;15.32;3.20;;;7.30;99.90;;;;;;5086407;28;20047;-41
2023/01/31 11:40:32;;;;;;;9.02;1.55;;;7.30;99.90;;;;;;5082518;28;20123;-42
2023/01/31 11:43:22;;;;;;;13.77;2.05;;;7.30;99.90;;;;;;5088347;28;20039;-43
2023/01/31 11:45:58;;;;;;;9.10;1.67;;;7.40;99.90;;;;;;5081800;28;20056;-42
2023/01/31 11:48:44;;;;;;;10.70;1.73;;;7.40;99.90;;;;;;5087041;28;20043;-41
2023/01/31 11:51:29;;;;;;;10.98;1.70;;;7.50;99.90;;;;;;5083605;28;20570;-43
2023/01/31 11:53:56;;;;;;;11.23;2.05;;;7.50;99.90;;;;;;5064406;28;20536;-51
2023/01/31 11:56:26;;;;;;;13.05;1.70;;;7.50;99.90;;;;;;5085732;28;20043;-46
2023/01/31 11:58:55;;;;;;;10.27;1.45;;;7.50;99.90;;;;;;5087615;28;20102;-44
2023/01/31 12:01:24;;;;;;;9.40;1.60;;;7.60;99.90;;;;;;5084166;28;20128;-45
2023/01/31 12:04:03;;;;;;;15.52;2.78;;;7.60;99.90;;;;;;5086720;28;20044;-45
2023/01/31 12:06:36;;;;;;;13.43;1.42;;;7.60;99.90;;;;;;5084410;28;20046;-44
2023/01/31 12:09:23;;;;;;;9.80;1.65;;;7.70;99.90;;;;;;5085110;28;20047;-50
2023/01/31 12:11:55;;;;;;;10.95;1.63;;;7.80;99.90;;;;;;5087203;28;20028;-41
2023/01/31 12:14:23;;;;;;;10.32;1.88;;;7.80;99.90;;;;;;5083106;28;20045;-41
2023/01/31 12:16:54;;;;;;;15.43;2.20;;;7.80;99.90;;;;;;5086685;28;20455;-54
2023/01/31 12:19:33;;;;;;;9.35;1.30;;;7.90;99.90;;;;;;5070504;28;20040;-38
2023/01/31 12:22:20;;;;;;;12.43;1.92;;;7.90;99.90;;;;;;5081886;28;20374;-38
2023/01/31 12:25:18;;;;;;;8.63;1.30;;;8.00;99.90;;;;;;5078021;28;20592;-37
2023/01/31 12:28:01;;;;;;;10.90;1.20;;;8.10;99.90;;;;;;5086972;28;20044;-38
2023/01/31 12:30:42;;;;;;;9.90;1.10;;;8.50;99.90;;;;;;5085911;28;20044;-37
2023/01/31 12:33:13;;;;;;;11.45;2.08;;;8.90;99.90;;;;;;5088892;28;20587;-37
2023/01/31 12:36:06;;;;;;;8.93;1.75;;;9.30;99.90;;;;;;5080946;28;20044;-37
2023/01/31 12:38:45;;;;;;;9.25;2.38;;;9.60;99.90;;;;;;5081578;28;20040;-44
2023/01/31 12:41:33;;;;;;;15.52;2.38;;;9.50;99.90;;;;;;5084629;28;20036;-45
2023/01/31 12:44:33;;;;;;;16.05;2.40;;;9.30;99.90;;;;;;5077431;28;20058;-46
2023/01/31 12:47:28;;;;;;;11.55;1.98;;;9.10;99.90;;;;;;5087328;28;20543;-41
2023/01/31 12:50:20;;;;;;;10.65;1.50;;;8.90;99.90;;;;;;5053060;28;20501;-41
2023/01/31 12:53:17;;;;;;;6.30;1.60;;;8.90;99.90;;;;;;5084418;28;20052;-46
2023/01/31 12:56:13;;;;;;;7.07;1.45;;;9.20;99.90;;;;;;5083416;28;20326;-43
2023/01/31 12:58:59;;;;;;;7.63;1.30;;;9.60;99.90;;;;;;5048019;28;20045;-42
2023/01/31 13:02:09;;;;;;;7.13;1.27;;;9.80;99.90;;;;;;5085448;28;20044;-44
2023/01/31 13:04:42;;;;;;;6.00;1.17;;;10.20;99.90;;;;;;5079911;28;20043;-40
2023/01/31 13:07:26;;;;;;;8.65;1.58;;;10.70;99.90;;;;;;5075922;28;20406;-43
2023/01/31 13:09:56;;;;;;;10.52;1.63;;;11.10;99.90;;;;;;5085022;28;20040;-41
2023/01/31 13:12:26;;;;;;;11.68;2.05;;;11.60;99.90;;;;;;5081808;28;20044;-42
2023/01/31 13:15:25;;;;;;;7.47;1.50;;;11.90;99.90;;;;;;5086530;28;20078;-41
2023/01/31 13:17:58;;;;;;;7.50;1.35;;;12.00;99.90;;;;;;5082852;28;20043;-45
2023/01/31 13:20:53;;;;;;;11.68;2.20;;;12.10;99.60;;;;;;5074540;28;20048;-41
2023/01/31 13:23:57;;;;;;;11.32;1.52;;;12.40;99.80;;;;;;5064002;28;20044;-41
2023/01/31 13:26:28;;;;;;;6.88;1.30;;;12.60;97.70;;;;;;5044188;28;20575;-42